createdAt,value
2022-12-25T00:03:40.405Z,98041.28
2022-12-25T00:07:42.529Z,98026.41
2022-12-25T00:11:44.590Z,98030.72
2022-12-25T00:15:46.623Z,98026.34
2022-12-25T00:19:48.703Z,98015.00
2022-12-25T00:23:54.836Z,98009.78
2022-12-25T00:27:56.870Z,98002.03
2022-12-25T00:31:58.981Z,97995.94
2022-12-25T00:36:01.390Z,97997.81
2022-12-25T00:40:03.564Z,97990.69
2022-12-25T00:44:06.754Z,97997.75
2022-12-25T00:48:09.045Z,98011.66
2022-12-25T00:52:11.230Z,98020.50
2022-12-25T00:56:13.236Z,98024.13
2022-12-25T01:00:15.748Z,98023.19
2022-12-25T01:04:17.765Z,98032.53
2022-12-25T01:08:19.829Z,98031.53
2022-12-25T01:12:21.813Z,98039.16
2022-12-25T01:16:24.306Z,98033.81
2022-12-25T01:20:26.362Z,98036.13
2022-12-25T01:24:28.375Z,98027.19
2022-12-25T01:28:30.637Z,98027.91
2022-12-25T01:32:32.658Z,98029.50
2022-12-25T01:36:34.665Z,98025.84
2022-12-25T01:40:37.968Z,98023.19
2022-12-25T01:44:39.896Z,98013.63
2022-12-25T01:48:42.017Z,98018.09
2022-12-25T01:52:44.735Z,98019.94
2022-12-25T01:56:49.653Z,98030.53
2022-12-25T02:00:52.686Z,98034.00
2022-12-25T02:05:03.328Z,98028.66
2022-12-25T02:09:05.381Z,98024.22
2022-12-25T02:13:07.993Z,98019.84
2022-12-25T02:17:23.866Z,98016.38
2022-12-25T02:21:45.537Z,98010.28
2022-12-25T02:26:12.471Z,98001.53
2022-12-25T02:30:14.767Z,98004.13
2022-12-25T02:34:43.044Z,98018.91
2022-12-25T02:39:11.090Z,98012.91
2022-12-25T02:43:36.610Z,97992.88
2022-12-25T02:47:57.769Z,97988.66
2022-12-25T02:52:24.700Z,97985.31
2022-12-25T02:56:48.636Z,97982.72
2022-12-25T03:01:16.206Z,97997.69
2022-12-25T03:05:40.701Z,98003.88
2022-12-25T03:10:10.114Z,98016.19
2022-12-25T03:14:30.883Z,98010.22
2022-12-25T03:18:34.076Z,98016.31
2022-12-25T03:22:55.275Z,98019.81
2022-12-25T03:26:58.012Z,98018.09
2022-12-25T03:31:20.144Z,98011.97
2022-12-25T03:35:46.275Z,98007.63
2022-12-25T03:40:51.057Z,98005.84
2022-12-25T03:45:26.546Z,98005.75
2022-12-25T03:50:06.851Z,97999.56
2022-12-25T03:54:30.022Z,97984.66
2022-12-25T03:58:50.813Z,97978.66
2022-12-25T04:03:11.289Z,97970.16
2022-12-25T04:07:32.050Z,97972.00
2022-12-25T04:11:57.310Z,97969.38
2022-12-25T04:16:21.418Z,97969.72
2022-12-25T04:20:42.483Z,97963.69
2022-12-25T04:25:03.244Z,97966.25
2022-12-25T04:29:23.575Z,97961.88
2022-12-25T04:33:44.323Z,97959.19
2022-12-25T04:37:46.401Z,97959.19
2022-12-25T04:41:48.447Z,97966.13
2022-12-25T04:45:56.465Z,97969.56
2022-12-25T04:49:58.542Z,97961.59
2022-12-25T04:54:00.552Z,97942.25
2022-12-25T04:58:02.647Z,97949.97
2022-12-25T05:02:04.799Z,97957.75
2022-12-25T05:06:07.522Z,97964.81
2022-12-25T05:10:09.930Z,97970.88
2022-12-25T05:14:12.013Z,97980.44
2022-12-25T05:18:14.270Z,97964.81
2022-12-25T05:22:16.323Z,97963.84
2022-12-25T05:26:24.938Z,97972.59
2022-12-25T05:30:27.004Z,97972.59
2022-12-25T05:34:29.004Z,97965.66
2022-12-25T05:38:31.097Z,97956.00
2022-12-25T05:42:34.395Z,97959.53
2022-12-25T05:46:36.514Z,97964.88
2022-12-25T05:50:39.050Z,97949.06
2022-12-25T05:54:41.954Z,97944.72
2022-12-25T05:58:44.053Z,97947.25
2022-12-25T06:02:46.270Z,97935.84
2022-12-25T06:06:48.441Z,97943.69
2022-12-25T06:10:50.493Z,97938.53
2022-12-25T06:14:52.554Z,97938.53
2022-12-25T06:18:54.584Z,97937.63
2022-12-25T06:22:56.651Z,97930.63
2022-12-25T06:26:58.776Z,97932.47
2022-12-25T06:31:07.115Z,97911.41
2022-12-25T06:35:09.357Z,97909.69
2022-12-25T06:39:11.398Z,97916.56
2022-12-25T06:43:13.467Z,97909.59
2022-12-25T06:47:15.571Z,97901.78
2022-12-25T06:51:26.495Z,97907.88
2022-12-25T06:55:28.602Z,97905.38
2022-12-25T06:59:30.685Z,97908.91
2022-12-25T07:03:32.890Z,97920.28
2022-12-25T07:07:34.915Z,97920.28
2022-12-25T07:11:37.295Z,97919.31
2022-12-25T07:15:39.368Z,97929.78
2022-12-25T07:19:45.163Z,97929.78
2022-12-25T07:23:49.867Z,97920.22
2022-12-25T07:27:52.023Z,97906.34
2022-12-25T07:31:54.318Z,97894.84
2022-12-25T07:35:56.446Z,97887.81
2022-12-25T07:39:58.484Z,97891.19
2022-12-25T07:44:00.579Z,97898.31
2022-12-25T07:48:05.466Z,97902.78
2022-12-25T07:52:08.900Z,97896.75
2022-12-25T07:56:14.193Z,97900.16
2022-12-25T08:00:16.879Z,97907.34
2022-12-25T08:04:19.181Z,97920.28
2022-12-25T08:08:21.303Z,97921.75
2022-12-25T08:12:23.409Z,97896.97
2022-12-25T08:16:25.556Z,97876.75
2022-12-25T08:20:27.688Z,97878.47
2022-12-25T08:24:29.726Z,97876.47
2022-12-25T08:28:32.727Z,97870.16
2022-12-25T08:32:35.305Z,97860.25
2022-12-25T08:36:37.856Z,97885.13
2022-12-25T08:40:39.882Z,97874.44
2022-12-25T08:44:41.990Z,97868.13
2022-12-25T08:48:46.156Z,97864.94
2022-12-25T08:52:48.261Z,97849.75
2022-12-25T08:56:50.315Z,97845.19
2022-12-25T09:00:52.613Z,97859.59
2022-12-25T09:04:54.735Z,97878.50
2022-12-25T09:08:56.752Z,97864.50
2022-12-25T09:12:58.874Z,97877.53
2022-12-25T09:17:00.915Z,97898.22
2022-12-25T09:21:05.601Z,97897.09
2022-12-25T09:25:07.956Z,97893.66
2022-12-25T09:29:09.997Z,97894.00
2022-12-25T09:33:11.977Z,97898.84
2022-12-25T09:37:13.972Z,97888.91
2022-12-25T09:41:49.106Z,97888.41
2022-12-25T09:45:51.240Z,97879.03
2022-12-25T09:50:01.408Z,97867.97
2022-12-25T09:54:12.121Z,97863.75
2022-12-25T09:58:14.477Z,97856.91
2022-12-25T10:02:32.875Z,97845.56
2022-12-25T10:07:06.008Z,97833.03
2022-12-25T10:11:27.257Z,97822.13
2022-12-25T10:15:46.991Z,97799.22
2022-12-25T10:19:59.205Z,97792.19
2022-12-25T10:24:07.287Z,97806.94
2022-12-25T10:28:14.791Z,97811.28
2022-12-25T10:32:16.795Z,97809.97
2022-12-25T10:36:21.984Z,97787.09
2022-12-25T10:40:23.926Z,97779.53
2022-12-25T10:44:26.371Z,97795.50
2022-12-25T10:48:30.374Z,97794.31
2022-12-25T10:52:32.413Z,97775.59
2022-12-25T10:56:34.442Z,97780.91
2022-12-25T11:00:36.471Z,97783.25
2022-12-25T11:04:38.565Z,97783.59
2022-12-25T11:08:40.624Z,97775.47
2022-12-25T11:12:45.463Z,97771.59
2022-12-25T11:16:47.616Z,97753.03
2022-12-25T11:20:58.078Z,97743.94
2022-12-25T11:25:15.072Z,97746.72
2022-12-25T11:29:42.462Z,97746.13
2022-12-25T11:34:40.290Z,97748.34
2022-12-25T11:38:42.591Z,97761.44
2022-12-25T11:42:50.146Z,97745.50
2022-12-25T11:46:55.975Z,97759.53
2022-12-25T11:51:01.375Z,97733.19
2022-12-25T11:55:25.985Z,97711.38
2022-12-25T11:59:35.387Z,97704.34
2022-12-25T12:03:40.460Z,97685.97
2022-12-25T12:08:03.696Z,97676.81
2022-12-25T12:12:21.639Z,97638.72
2022-12-25T12:16:23.817Z,97652.09
2022-12-25T12:20:34.601Z,97659.97
2022-12-25T12:24:43.128Z,97661.66
2022-12-25T12:28:47.123Z,97675.97
2022-12-25T12:32:59.823Z,97669.13
2022-12-25T12:37:06.783Z,97655.59
2022-12-25T12:41:12.006Z,97650.75
2022-12-25T12:45:23.792Z,97649.75
2022-12-25T12:49:28.621Z,97654.28
2022-12-25T12:53:33.394Z,97633.63
2022-12-25T12:57:39.940Z,97631.75
2022-12-25T13:01:57.491Z,97631.38
2022-12-25T13:06:17.057Z,97633.38
2022-12-25T13:10:32.793Z,97633.16
2022-12-25T13:14:37.791Z,97635.28
2022-12-25T13:18:40.091Z,97633.75
2022-12-25T13:22:43.542Z,97631.06
2022-12-25T13:26:48.515Z,97635.53
2022-12-25T13:30:50.534Z,97634.19
2022-12-25T13:34:54.008Z,97629.63
2022-12-25T13:38:57.812Z,97635.16
2022-12-25T13:43:01.185Z,97618.31
2022-12-25T13:47:23.182Z,97609.28
2022-12-25T13:51:25.736Z,97622.13
2022-12-25T13:55:30.424Z,97618.59
2022-12-25T13:59:32.760Z,97626.38
2022-12-25T14:03:46.563Z,97625.53
2022-12-25T14:07:56.163Z,97623.88
2022-12-25T14:11:58.241Z,97614.56
2022-12-25T14:16:00.991Z,97605.16
2022-12-25T14:20:08.252Z,97599.91
2022-12-25T14:24:16.130Z,97605.00
2022-12-25T14:28:20.427Z,97607.56
2022-12-25T14:32:26.046Z,97612.81
2022-12-25T14:36:29.422Z,97614.69
2022-12-25T14:40:33.024Z,97606.84
2022-12-25T14:44:41.030Z,97605.16
2022-12-25T14:48:43.601Z,97606.78
2022-12-25T14:52:45.857Z,97608.38
2022-12-25T14:56:50.224Z,97616.19
2022-12-25T15:00:59.064Z,97614.41
2022-12-25T15:05:01.075Z,97621.25
2022-12-25T15:09:06.665Z,97607.25
2022-12-25T15:13:08.655Z,97616.88
2022-12-25T15:17:26.526Z,97611.50
2022-12-25T15:21:31.103Z,97626.22
2022-12-25T15:25:33.239Z,97620.13
2022-12-25T15:33:59.684Z,97606.78
2022-12-25T15:38:01.668Z,97606.03
2022-12-25T15:42:12.969Z,97606.72
2022-12-25T15:46:15.269Z,97601.31
2022-12-25T15:50:18.892Z,97609.06
2022-12-25T15:54:21.117Z,97621.22
2022-12-25T15:58:23.133Z,97615.97
2022-12-25T16:02:25.491Z,97615.00
2022-12-25T16:06:27.685Z,97614.91
2022-12-25T16:10:34.904Z,97605.19
2022-12-25T16:14:40.404Z,97593.88
2022-12-25T16:18:47.351Z,97601.66
2022-12-25T16:22:50.035Z,97580.53
2022-12-25T16:26:52.457Z,97590.72
2022-12-25T16:30:54.548Z,97580.91
2022-12-25T16:34:57.071Z,97585.47
2022-12-25T16:38:59.092Z,97583.84
2022-12-25T16:43:01.158Z,97590.84
2022-12-25T16:47:03.333Z,97604.59
2022-12-25T16:51:16.334Z,97616.63
2022-12-25T16:55:18.406Z,97610.44
2022-12-25T16:59:20.714Z,97622.47
2022-12-25T17:03:22.759Z,97635.47
2022-12-25T17:07:24.818Z,97620.47
2022-12-25T17:11:29.535Z,97625.66
2022-12-25T17:15:31.576Z,97616.16
2022-12-25T17:19:33.671Z,97604.00
2022-12-25T17:23:37.910Z,97582.22
2022-12-25T17:27:39.948Z,97585.69
2022-12-25T17:31:42.104Z,97583.94
2022-12-25T17:35:44.256Z,97584.69
2022-12-25T17:39:46.994Z,97580.44
2022-12-25T17:43:49.055Z,97588.56
2022-12-25T17:47:54.905Z,97574.81
2022-12-25T17:51:56.964Z,97587.25
2022-12-25T17:55:59.023Z,97571.69
2022-12-25T18:00:01.031Z,97562.19
2022-12-25T18:04:03.472Z,97580.53
2022-12-25T18:08:05.584Z,97569.13
2022-12-25T18:12:09.396Z,97571.44
2022-12-25T18:16:12.875Z,97574.91
2022-12-25T18:20:14.883Z,97557.06
2022-12-25T18:24:16.889Z,97561.28
2022-12-25T18:28:18.977Z,97552.66
2022-12-25T18:32:26.275Z,97556.50
2022-12-25T18:36:30.639Z,97568.34
2022-12-25T18:40:32.716Z,97561.06
2022-12-25T18:44:35.444Z,97564.38
2022-12-25T18:48:37.947Z,97557.19
2022-12-25T18:52:49.124Z,97566.59
2022-12-25T18:56:53.767Z,97549.91
2022-12-25T19:00:55.913Z,97547.97
2022-12-25T19:04:57.975Z,97549.56
2022-12-25T19:09:00.043Z,97538.03
2022-12-25T19:13:02.059Z,97544.97
2022-12-25T19:17:04.794Z,97553.81
2022-12-25T19:21:08.980Z,97556.44
2022-12-25T19:25:10.984Z,97542.53
2022-12-25T19:29:13.749Z,97559.22
2022-12-25T19:33:17.973Z,97558.22
2022-12-25T19:37:20.205Z,97563.47
2022-12-25T19:41:22.200Z,97554.66
2022-12-25T19:45:24.311Z,97529.31
2022-12-25T19:49:26.317Z,97530.06
2022-12-25T19:53:29.500Z,97555.41
2022-12-25T19:57:31.516Z,97543.97
2022-12-25T20:01:33.690Z,97546.84
2022-12-25T20:05:38.053Z,97534.72
2022-12-25T20:09:40.063Z,97538.44
2022-12-25T20:13:42.320Z,97540.22
2022-12-25T20:17:47.029Z,97540.94
2022-12-25T20:21:49.029Z,97539.41
2022-12-25T20:25:52.558Z,97540.41
2022-12-25T20:29:54.596Z,97541.19
2022-12-25T20:34:00.631Z,97550.59
2022-12-25T20:38:03.057Z,97542.78
2022-12-25T20:42:06.086Z,97562.28
2022-12-25T20:46:08.443Z,97557.28
2022-12-25T20:50:10.479Z,97563.56
2022-12-25T20:54:14.826Z,97561.00
2022-12-25T20:58:17.421Z,97561.06
2022-12-25T21:02:35.558Z,97561.25
2022-12-25T21:06:38.435Z,97552.75
2022-12-25T21:10:40.486Z,97554.72
2022-12-25T21:14:42.549Z,97566.22
2022-12-25T21:18:44.587Z,97569.94
2022-12-25T21:22:46.666Z,97564.72
2022-12-25T21:26:48.779Z,97575.34
2022-12-25T21:30:51.654Z,97580.31
2022-12-25T21:34:53.678Z,97591.31
2022-12-25T21:39:01.247Z,97587.41
2022-12-25T21:43:05.508Z,97594.06
2022-12-25T21:47:07.495Z,97604.91
2022-12-25T21:51:37.409Z,97601.66
2022-12-25T21:55:39.431Z,97608.31
2022-12-25T21:59:41.503Z,97596.41
2022-12-25T22:03:44.282Z,97606.75
2022-12-25T22:07:46.388Z,97593.06
2022-12-25T22:12:07.049Z,97622.31
2022-12-25T22:16:27.452Z,97617.38
2022-12-25T22:20:34.533Z,97601.78
2022-12-25T22:24:36.768Z,97615.91
2022-12-25T22:28:38.785Z,97625.56
2022-12-25T22:32:40.931Z,97622.00
2022-12-25T22:36:43.307Z,97619.44
2022-12-25T22:40:45.343Z,97612.53
2022-12-25T22:44:47.458Z,97617.84
2022-12-25T22:48:49.514Z,97624.75
2022-12-25T22:52:51.533Z,97641.44
2022-12-25T22:56:53.606Z,97646.41
2022-12-25T23:00:55.671Z,97645.88
2022-12-25T23:04:57.673Z,97646.03
2022-12-25T23:09:00.340Z,97645.31
2022-12-25T23:13:21.092Z,97642.84
2022-12-25T23:17:41.529Z,97633.06
2022-12-25T23:22:02.426Z,97628.53
2022-12-25T23:26:07.571Z,97631.75
2022-12-25T23:30:16.355Z,97625.28
2022-12-25T23:34:18.385Z,97624.81
2022-12-25T23:38:20.581Z,97630.41
2022-12-25T23:42:22.616Z,97627.91
2022-12-25T23:46:24.749Z,97630.91
2022-12-25T23:50:26.815Z,97631.19
2022-12-25T23:54:30.771Z,97645.94
2022-12-25T23:58:32.776Z,97640.28
